Archer, Illinois
Current Conditions -  °F | °C
As of 12:52 PM on Thursday 23 Oct 2014 (Local Time) from KSPI Reporting Station
Clear Clear  
Wind Chill: 58°   Ceiling: Unl
Heat Index: 58°   Visibility: 10mi
Dew Point: 44°   Wind: 7mph
Humidity: 60%   Direction: NA
Pressure: 30.18"   Gusts: NA
Location:  39.854°N, 89.6295°W
Report Text: KSPI 231752Z VRB06KT 10SM CLR 14/07 A3018 RMK AO2 SLP220 T01440067 10144 20044 58014
Loading
Personal Weather Stations






























Interactive Weather Map
Tropical Storm Tracking
New forecast layout! Learn more

10-Day Weather Forecast

Advertisements
Track Severe Weather on mobile